createdAt,value
2022-12-11T00:02:09.226Z,15.60
2022-12-11T00:04:35.889Z,15.42
2022-12-11T00:07:02.523Z,15.36
2022-12-11T00:09:29.152Z,14.66
2022-12-11T00:11:55.969Z,14.69
2022-12-11T00:14:22.598Z,14.60
2022-12-11T00:16:49.305Z,14.19
2022-12-11T00:19:16.226Z,14.07
2022-12-11T00:21:42.876Z,13.22
2022-12-11T00:24:09.580Z,13.47
2022-12-11T00:26:36.201Z,14.37
2022-12-11T00:29:02.889Z,15.42
2022-12-11T00:31:29.592Z,15.64
2022-12-11T00:33:56.263Z,15.68
2022-12-11T00:36:25.093Z,16.14
2022-12-11T00:38:51.828Z,15.63
2022-12-11T00:41:18.482Z,15.97
2022-12-11T00:43:45.167Z,16.04
2022-12-11T00:46:11.878Z,16.31
2022-12-11T00:48:38.546Z,15.98
2022-12-11T00:51:05.411Z,15.84
2022-12-11T00:53:32.056Z,15.41
2022-12-11T00:55:58.700Z,14.91
2022-12-11T00:58:25.359Z,15.33
2022-12-11T01:00:52.010Z,14.68
2022-12-11T01:03:18.622Z,15.79
2022-12-11T01:05:52.590Z,15.83
2022-12-11T01:08:19.270Z,16.01
2022-12-11T01:10:45.944Z,15.75
2022-12-11T01:13:12.610Z,16.17
2022-12-11T01:15:42.024Z,16.11
2022-12-11T01:18:09.755Z,16.76
2022-12-11T01:20:37.890Z,16.79
2022-12-11T01:23:04.786Z,17.94
2022-12-11T01:25:31.423Z,17.23
2022-12-11T01:27:58.059Z,18.10
2022-12-11T01:30:25.273Z,17.80
2022-12-11T01:32:52.116Z,17.10
2022-12-11T01:35:18.965Z,17.78
2022-12-11T01:37:45.601Z,17.85
2022-12-11T01:40:14.042Z,18.62
2022-12-11T01:42:40.683Z,19.22
2022-12-11T01:45:24.702Z,19.61
2022-12-11T01:48:18.109Z,19.75
2022-12-11T01:50:50.575Z,19.90
2022-12-11T01:53:23.469Z,19.36
2022-12-11T01:55:50.648Z,19.71
2022-12-11T01:58:17.294Z,19.55
2022-12-11T02:00:43.963Z,19.66
2022-12-11T02:03:10.606Z,20.27
2022-12-11T02:05:37.249Z,18.88
2022-12-11T02:08:03.976Z,18.98
2022-12-11T02:10:57.188Z,19.62
2022-12-11T02:13:30.253Z,19.67
2022-12-11T02:16:06.027Z,18.72
2022-12-11T02:18:39.483Z,18.67
2022-12-11T02:21:08.891Z,18.95
2022-12-11T02:24:12.779Z,19.72
2022-12-11T02:27:14.773Z,19.61
2022-12-11T02:29:49.703Z,19.16
2022-12-11T02:32:25.242Z,20.12
2022-12-11T02:34:57.613Z,19.08
2022-12-11T02:37:25.202Z,20.01
2022-12-11T02:39:52.542Z,19.71
2022-12-11T02:42:19.191Z,19.43
2022-12-11T02:44:45.836Z,20.65
2022-12-11T02:47:12.942Z,20.31
2022-12-11T02:49:40.540Z,19.98
2022-12-11T02:52:07.176Z,20.34
2022-12-11T02:54:36.146Z,19.08
2022-12-11T02:57:08.873Z,18.78
2022-12-11T02:59:42.800Z,18.80
2022-12-11T03:02:09.489Z,19.40
2022-12-11T03:04:36.130Z,19.20
2022-12-11T03:07:07.252Z,18.65
2022-12-11T03:09:33.912Z,18.94
2022-12-11T03:12:00.555Z,19.10
2022-12-11T03:14:27.182Z,19.28
2022-12-11T03:17:04.058Z,18.78
2022-12-11T03:19:35.638Z,19.65
2022-12-11T03:22:24.663Z,18.49
2022-12-11T03:24:51.882Z,18.93
2022-12-11T03:27:27.546Z,18.34
2022-12-11T03:29:59.005Z,18.74
2022-12-11T03:32:28.287Z,18.87
2022-12-11T03:35:18.025Z,18.86
2022-12-11T03:37:44.648Z,18.72
2022-12-11T03:40:14.397Z,18.95
2022-12-11T03:42:41.036Z,18.73
2022-12-11T03:45:08.058Z,18.00
2022-12-11T03:47:34.885Z,17.43
2022-12-11T03:50:01.573Z,17.29
2022-12-11T03:52:28.203Z,16.79
2022-12-11T03:54:55.319Z,17.19
2022-12-11T03:57:22.782Z,16.90
2022-12-11T03:59:49.561Z,16.82
2022-12-11T04:02:16.212Z,16.99
2022-12-11T04:04:43.009Z,16.30
2022-12-11T04:07:09.672Z,16.34
2022-12-11T04:09:36.324Z,16.72
2022-12-11T04:12:03.003Z,15.92
2022-12-11T04:14:29.667Z,17.19
2022-12-11T04:16:56.610Z,18.51
2022-12-11T04:19:23.297Z,18.53
2022-12-11T04:21:49.918Z,18.83
2022-12-11T04:24:16.556Z,19.36
2022-12-11T04:26:46.470Z,19.38
2022-12-11T04:29:13.818Z,18.92
2022-12-11T04:31:40.477Z,18.53
2022-12-11T04:34:07.131Z,18.05
2022-12-11T04:36:33.783Z,18.09
2022-12-11T04:39:00.436Z,18.12
2022-12-11T04:41:27.083Z,17.84
2022-12-11T04:43:53.733Z,17.29
2022-12-11T04:46:21.373Z,16.42
2022-12-11T04:48:52.370Z,15.63
2022-12-11T04:51:22.223Z,15.90
2022-12-11T04:53:48.871Z,15.90
2022-12-11T04:56:15.686Z,16.42
2022-12-11T04:58:43.202Z,16.61
2022-12-11T05:01:10.899Z,16.05
2022-12-11T05:03:37.654Z,16.60
2022-12-11T05:06:04.534Z,16.42
2022-12-11T05:08:31.153Z,16.51
2022-12-11T05:11:02.375Z,15.89
2022-12-11T05:13:29.142Z,16.60
2022-12-11T05:15:55.999Z,15.98
2022-12-11T05:18:22.675Z,15.36
2022-12-11T05:21:02.233Z,14.57
2022-12-11T05:23:29.025Z,15.44
2022-12-11T05:25:56.573Z,14.20
2022-12-11T05:28:23.457Z,14.16
2022-12-11T05:31:01.403Z,14.36
2022-12-11T05:33:28.199Z,14.45
2022-12-11T05:35:54.825Z,14.74
2022-12-11T05:38:21.434Z,14.48
2022-12-11T05:41:01.161Z,15.11
2022-12-11T05:43:28.592Z,15.43
2022-12-11T05:45:55.237Z,16.58
2022-12-11T05:48:21.905Z,16.30
2022-12-11T05:51:00.272Z,16.60
2022-12-11T05:53:26.977Z,16.40
2022-12-11T05:55:53.621Z,16.29
2022-12-11T05:58:20.536Z,16.34
2022-12-11T06:00:47.677Z,15.68
2022-12-11T06:03:14.439Z,16.27
2022-12-11T06:05:41.634Z,16.84
2022-12-11T06:08:08.382Z,16.31
2022-12-11T06:10:35.034Z,17.29
2022-12-11T06:13:01.670Z,17.44
2022-12-11T06:15:29.007Z,16.81
2022-12-11T06:17:55.639Z,16.53
2022-12-11T06:20:22.252Z,17.61
2022-12-11T06:22:48.897Z,17.12
2022-12-11T06:25:15.567Z,17.42
2022-12-11T06:27:42.191Z,16.50
2022-12-11T06:30:09.326Z,17.67
2022-12-11T06:32:35.958Z,17.48
2022-12-11T06:35:02.598Z,16.93
2022-12-11T06:37:29.226Z,16.12
2022-12-11T06:39:55.856Z,17.11
2022-12-11T06:42:22.509Z,17.79
2022-12-11T06:44:49.128Z,18.97
2022-12-11T06:47:15.829Z,18.26
2022-12-11T06:49:42.482Z,18.29
2022-12-11T06:52:12.459Z,18.39
2022-12-11T06:54:41.686Z,19.45
2022-12-11T06:57:09.615Z,19.53
2022-12-11T06:59:36.389Z,19.21
2022-12-11T07:02:03.094Z,19.17
2022-12-11T07:04:29.760Z,20.41
2022-12-11T07:06:57.025Z,19.58
2022-12-11T07:09:24.295Z,19.89
2022-12-11T07:11:51.538Z,20.45
2022-12-11T07:14:18.156Z,19.90
2022-12-11T07:16:44.811Z,20.95
2022-12-11T07:19:11.469Z,22.18
2022-12-11T07:21:38.114Z,21.81
2022-12-11T07:24:05.033Z,21.51
2022-12-11T07:26:31.650Z,21.54
2022-12-11T07:28:58.320Z,21.63
2022-12-11T07:31:25.806Z,21.48
2022-12-11T07:33:59.656Z,21.72
2022-12-11T07:36:26.433Z,21.89
2022-12-11T07:38:53.158Z,22.18
2022-12-11T07:41:19.846Z,21.74
2022-12-11T07:43:46.469Z,22.47
2022-12-11T07:46:15.267Z,21.10
2022-12-11T07:48:42.699Z,21.72
2022-12-11T07:51:16.943Z,21.75
2022-12-11T07:53:44.306Z,21.23
2022-12-11T07:56:11.108Z,22.88
2022-12-11T07:58:37.739Z,22.37
2022-12-11T08:01:25.162Z,22.38
2022-12-11T08:03:52.117Z,22.24
2022-12-11T08:06:18.746Z,21.77
2022-12-11T08:08:45.381Z,22.21
2022-12-11T08:11:12.940Z,22.14
2022-12-11T08:13:39.633Z,21.50
2022-12-11T08:16:07.031Z,21.44
2022-12-11T08:18:34.225Z,21.33
2022-12-11T08:21:05.820Z,20.88
2022-12-11T08:23:32.529Z,21.13
2022-12-11T08:25:59.183Z,21.79
2022-12-11T08:28:27.291Z,21.78
2022-12-11T08:30:54.080Z,22.74
2022-12-11T08:33:20.758Z,22.87
2022-12-11T08:35:47.441Z,21.95
2022-12-11T08:38:14.350Z,21.93
2022-12-11T08:40:41.047Z,21.41
2022-12-11T08:43:07.664Z,20.30
2022-12-11T08:45:34.295Z,18.81
2022-12-11T08:48:00.961Z,17.42
2022-12-11T08:50:27.619Z,16.54
2022-12-11T08:52:54.321Z,16.72
2022-12-11T08:55:20.989Z,18.18
2022-12-11T08:57:47.656Z,19.00
2022-12-11T09:00:14.740Z,19.87
2022-12-11T09:02:41.860Z,19.56
2022-12-11T09:05:08.915Z,19.48
2022-12-11T09:07:36.356Z,19.02
2022-12-11T09:10:06.600Z,19.45
2022-12-11T09:12:34.253Z,18.37
2022-12-11T09:15:00.890Z,17.12
2022-12-11T09:17:27.587Z,17.84
2022-12-11T09:19:54.273Z,17.49
2022-12-11T09:22:20.894Z,16.61
2022-12-11T09:24:47.561Z,16.47
2022-12-11T09:27:14.173Z,17.68
2022-12-11T09:29:40.843Z,16.63
2022-12-11T09:32:07.475Z,17.02
2022-12-11T09:34:34.115Z,17.33
2022-12-11T09:37:00.767Z,16.07
2022-12-11T09:39:27.391Z,16.46
2022-12-11T09:42:08.699Z,15.65
2022-12-11T09:44:41.520Z,15.59
2022-12-11T09:47:23.279Z,16.02
2022-12-11T09:49:51.457Z,16.09
2022-12-11T09:52:27.590Z,17.65
2022-12-11T09:54:58.987Z,16.90
2022-12-11T09:57:34.196Z,18.29
2022-12-11T10:00:20.294Z,18.43
2022-12-11T10:03:18.511Z,16.89
2022-12-11T10:06:05.105Z,15.97
2022-12-11T10:08:56.234Z,16.55
2022-12-11T10:11:44.003Z,16.73
2022-12-11T10:14:17.339Z,16.23
2022-12-11T10:16:49.072Z,17.15
2022-12-11T10:19:26.288Z,16.59
2022-12-11T10:21:52.952Z,16.94
2022-12-11T10:24:57.871Z,17.48
2022-12-11T10:27:19.783Z,17.33
2022-12-11T10:30:00.909Z,18.16
2022-12-11T10:33:03.083Z,18.79
2022-12-11T10:35:31.518Z,17.44
2022-12-11T10:38:16.524Z,17.88
2022-12-11T10:40:45.930Z,18.05
2022-12-11T10:43:12.594Z,18.31
2022-12-11T10:45:39.237Z,17.75
2022-12-11T10:48:11.832Z,16.92
2022-12-11T10:50:38.473Z,17.39
2022-12-11T10:53:05.358Z,17.47
2022-12-11T10:55:39.287Z,16.53
2022-12-11T10:58:05.915Z,16.73
2022-12-11T11:00:36.963Z,16.77
2022-12-11T11:03:36.526Z,17.27
2022-12-11T11:06:16.929Z,17.40
2022-12-11T11:08:45.598Z,17.84
2022-12-11T11:11:26.859Z,18.42
2022-12-11T11:14:09.962Z,17.39
2022-12-11T11:16:37.470Z,17.80
2022-12-11T11:19:04.107Z,18.23
2022-12-11T11:21:30.874Z,18.27
2022-12-11T11:23:57.570Z,17.89
2022-12-11T11:26:30.793Z,18.03
2022-12-11T11:29:23.037Z,18.66
2022-12-11T11:31:49.728Z,18.17
2022-12-11T11:34:19.492Z,18.08
2022-12-11T11:36:46.119Z,17.92
2022-12-11T11:39:31.902Z,17.48
2022-12-11T11:42:13.687Z,17.48
2022-12-11T11:44:43.447Z,18.06
2022-12-11T11:47:48.789Z,17.37
2022-12-11T11:50:18.178Z,17.94
2022-12-11T11:52:56.011Z,18.00
2022-12-11T11:55:31.909Z,17.69
2022-12-11T11:58:23.512Z,18.10
2022-12-11T12:00:50.431Z,17.81
2022-12-11T12:03:19.395Z,17.68
2022-12-11T12:05:49.998Z,17.96
2022-12-11T12:08:25.621Z,18.00
2022-12-11T12:11:01.733Z,18.36
2022-12-11T12:13:55.617Z,18.01
2022-12-11T12:19:48.149Z,18.17
2022-12-11T12:22:40.214Z,17.95
2022-12-11T12:25:31.933Z,18.79
2022-12-11T12:28:35.693Z,18.37
2022-12-11T12:31:14.479Z,18.11
2022-12-11T12:33:48.317Z,18.43
2022-12-11T12:36:36.742Z,18.32
2022-12-11T12:39:43.969Z,19.09
2022-12-11T12:42:36.746Z,19.53
2022-12-11T12:45:12.902Z,18.90
2022-12-11T12:47:39.707Z,19.24
2022-12-11T12:50:12.209Z,19.31
2022-12-11T12:52:39.262Z,18.55
2022-12-11T12:55:26.775Z,19.22
2022-12-11T12:57:55.738Z,19.68
2022-12-11T13:00:39.194Z,19.69
2022-12-11T13:03:20.504Z,19.50
2022-12-11T13:06:01.115Z,20.05
2022-12-11T13:08:31.600Z,19.49
2022-12-11T13:11:06.313Z,19.68
2022-12-11T13:13:35.898Z,18.92
2022-12-11T13:16:17.534Z,19.51
2022-12-11T13:18:45.505Z,18.57
2022-12-11T13:21:36.090Z,20.10
2022-12-11T13:24:21.743Z,19.06
2022-12-11T13:26:49.331Z,19.51
2022-12-11T13:29:32.661Z,19.48
2022-12-11T13:32:01.662Z,19.84
2022-12-11T13:34:32.209Z,20.37
2022-12-11T13:36:59.803Z,20.32
2022-12-11T13:39:28.420Z,21.11
2022-12-11T13:41:57.769Z,19.80
2022-12-11T13:44:28.540Z,20.05
2022-12-11T13:46:58.878Z,20.40
2022-12-11T13:49:38.903Z,20.01
2022-12-11T13:52:06.482Z,20.51
2022-12-11T13:54:36.815Z,20.32
2022-12-11T13:57:07.988Z,20.37
2022-12-11T13:59:38.533Z,20.00
2022-12-11T14:02:14.942Z,19.93
2022-12-11T14:04:43.499Z,20.64
2022-12-11T14:07:10.187Z,20.29
2022-12-11T14:09:39.815Z,21.07
2022-12-11T14:12:06.678Z,20.22
2022-12-11T14:14:40.653Z,20.36
2022-12-11T14:17:12.446Z,20.19
2022-12-11T14:19:39.196Z,21.35
2022-12-11T14:22:05.930Z,20.88
2022-12-11T14:24:32.611Z,20.63
2022-12-11T14:26:59.904Z,20.82
2022-12-11T14:29:33.557Z,21.02
2022-12-11T14:32:05.061Z,20.01
2022-12-11T14:34:36.926Z,20.37
2022-12-11T14:37:06.330Z,21.14
2022-12-11T14:39:41.954Z,20.53
2022-12-11T14:42:18.762Z,20.13
2022-12-11T14:44:49.443Z,20.70
2022-12-11T14:47:21.503Z,20.45
2022-12-11T14:50:08.248Z,21.15
2022-12-11T14:52:50.683Z,21.76
2022-12-11T14:55:22.871Z,21.33
2022-12-11T14:57:50.661Z,21.61
2022-12-11T15:00:31.126Z,21.35
2022-12-11T15:03:18.972Z,21.73
2022-12-11T15:05:56.123Z,21.92
2022-12-11T15:08:27.343Z,21.48
2022-12-11T15:11:13.419Z,22.26
2022-12-11T15:13:57.953Z,21.61
2022-12-11T15:16:25.282Z,22.37
2022-12-11T15:18:53.522Z,22.86
2022-12-11T15:21:20.165Z,22.62
2022-12-11T15:23:51.160Z,22.03
2022-12-11T15:26:17.948Z,21.61
2022-12-11T15:28:44.712Z,21.95
2022-12-11T15:31:30.433Z,22.19
2022-12-11T15:33:57.121Z,23.84
2022-12-11T15:36:26.258Z,22.10
2022-12-11T15:38:52.907Z,21.93
2022-12-11T15:41:19.796Z,21.93
2022-12-11T15:43:46.482Z,22.70
2022-12-11T15:46:13.229Z,22.55
2022-12-11T15:48:39.874Z,22.43
2022-12-11T15:51:06.543Z,22.75
2022-12-11T15:53:33.206Z,21.76
2022-12-11T15:55:59.859Z,22.63
2022-12-11T15:58:26.546Z,23.07
2022-12-11T16:00:53.621Z,22.94
2022-12-11T16:03:21.285Z,22.26
2022-12-11T16:05:49.112Z,22.84
2022-12-11T16:08:18.303Z,23.60
2022-12-11T16:10:45.086Z,23.01
2022-12-11T16:13:11.917Z,22.91
2022-12-11T16:15:39.381Z,22.64
2022-12-11T16:18:07.547Z,23.33
2022-12-11T16:20:35.011Z,23.00
2022-12-11T16:23:01.715Z,23.45
2022-12-11T16:25:28.435Z,23.10
2022-12-11T16:27:58.612Z,23.40
2022-12-11T16:30:26.079Z,24.41
2022-12-11T16:32:52.777Z,24.24
2022-12-11T16:35:19.746Z,23.87
2022-12-11T16:37:49.149Z,23.81
2022-12-11T16:40:15.887Z,23.52
2022-12-11T16:42:42.538Z,24.09
2022-12-11T16:45:12.806Z,24.13
2022-12-11T16:47:39.594Z,23.57
2022-12-11T16:50:06.750Z,24.14
2022-12-11T16:52:33.450Z,23.35
2022-12-11T16:55:00.098Z,23.51
2022-12-11T16:57:26.759Z,24.24
2022-12-11T16:59:53.586Z,24.60
2022-12-11T17:02:20.449Z,24.10
2022-12-11T17:04:53.523Z,23.98
2022-12-11T17:07:20.603Z,24.79
2022-12-11T17:09:48.282Z,24.16
2022-12-11T17:12:15.007Z,24.12
2022-12-11T17:14:41.718Z,23.76
2022-12-11T17:17:08.381Z,23.44
2022-12-11T17:19:35.484Z,22.24
2022-12-11T17:22:02.174Z,23.82
2022-12-11T17:24:29.213Z,23.35
2022-12-11T17:26:55.899Z,23.20
2022-12-11T17:29:22.614Z,23.74
2022-12-11T17:31:49.280Z,23.76
2022-12-11T17:34:15.919Z,23.32
2022-12-11T17:36:42.543Z,23.28
2022-12-11T17:39:09.187Z,23.17
2022-12-11T17:41:35.851Z,21.56
2022-12-11T17:44:02.519Z,21.45
2022-12-11T17:46:29.253Z,20.65
2022-12-11T17:48:56.305Z,20.65
2022-12-11T17:51:23.997Z,21.72
2022-12-11T17:53:51.636Z,21.59
2022-12-11T17:56:19.139Z,21.23
2022-12-11T17:58:45.866Z,20.45
2022-12-11T18:01:12.628Z,19.99
2022-12-11T18:03:42.051Z,19.32
2022-12-11T18:06:10.965Z,18.82
2022-12-11T18:08:37.735Z,19.09
2022-12-11T18:11:11.531Z,18.61
2022-12-11T18:13:38.367Z,20.15
2022-12-11T18:16:07.011Z,20.00
2022-12-11T18:18:36.529Z,20.45
2022-12-11T18:21:03.183Z,19.60
2022-12-11T18:23:29.838Z,18.25
2022-12-11T18:25:56.650Z,19.03
2022-12-11T18:28:23.319Z,19.16
2022-12-11T18:30:50.014Z,18.16
2022-12-11T18:33:16.664Z,17.00
2022-12-11T18:35:43.919Z,17.22
2022-12-11T18:38:10.606Z,18.74
2022-12-11T18:40:37.999Z,19.42
2022-12-11T18:43:04.879Z,21.48
2022-12-11T18:45:31.618Z,22.51
2022-12-11T18:47:58.262Z,22.67
2022-12-11T18:50:25.243Z,22.97
2022-12-11T18:52:55.376Z,20.80
2022-12-11T18:55:22.023Z,20.09
2022-12-11T18:57:48.671Z,18.74
2022-12-11T19:00:15.837Z,17.43
2022-12-11T19:02:42.541Z,16.34
2022-12-11T19:05:09.540Z,15.89
2022-12-11T19:07:36.471Z,16.32
2022-12-11T19:10:03.491Z,15.61
2022-12-11T19:12:30.178Z,14.73
2022-12-11T19:14:56.856Z,14.77
2022-12-11T19:17:23.515Z,14.03
2022-12-11T19:19:50.425Z,14.28
2022-12-11T19:22:17.536Z,16.03
2022-12-11T19:24:44.443Z,17.11
2022-12-11T19:27:13.719Z,16.88
2022-12-11T19:29:40.576Z,18.25
2022-12-11T19:32:07.245Z,19.18
2022-12-11T19:34:34.092Z,17.84
2022-12-11T19:37:00.757Z,17.49
2022-12-11T19:39:27.412Z,17.08
2022-12-11T19:41:54.266Z,16.68
2022-12-11T19:44:20.988Z,16.01
2022-12-11T19:46:47.760Z,16.54
2022-12-11T19:49:14.445Z,16.89
2022-12-11T19:51:41.692Z,16.17
2022-12-11T19:54:09.754Z,16.40
2022-12-11T19:56:36.417Z,19.04
2022-12-11T19:59:04.086Z,18.85
2022-12-11T20:01:31.690Z,16.76
2022-12-11T20:03:59.459Z,16.60
2022-12-11T20:06:27.807Z,16.95
2022-12-11T20:08:54.547Z,17.07
2022-12-11T20:11:21.268Z,18.20
2022-12-11T20:13:48.050Z,17.47
2022-12-11T20:16:14.927Z,15.94
2022-12-11T20:18:41.617Z,16.17
2022-12-11T20:21:11.297Z,16.09
2022-12-11T20:23:38.006Z,18.05
2022-12-11T20:26:08.537Z,20.19
2022-12-11T20:28:35.237Z,20.53
2022-12-11T20:31:13.571Z,19.95
2022-12-11T20:33:43.349Z,23.11
2022-12-11T20:36:14.285Z,24.31
2022-12-11T20:38:40.970Z,24.13
2022-12-11T20:41:12.747Z,22.63
2022-12-11T20:43:39.620Z,22.51
2022-12-11T20:46:07.276Z,21.66
2022-12-11T20:48:34.028Z,17.56
2022-12-11T20:51:01.473Z,16.15
2022-12-11T20:53:28.161Z,15.37
2022-12-11T20:55:54.882Z,14.30
2022-12-11T20:58:21.528Z,13.20
2022-12-11T21:00:48.357Z,13.10
2022-12-11T21:03:15.013Z,13.66
2022-12-11T21:05:41.776Z,13.16
2022-12-11T21:08:08.914Z,14.03
2022-12-11T21:10:35.614Z,13.99
2022-12-11T21:13:02.458Z,13.65
2022-12-11T21:15:29.103Z,13.43
2022-12-11T21:17:55.787Z,13.44
2022-12-11T21:20:22.430Z,13.39
2022-12-11T21:22:49.063Z,13.29
2022-12-11T21:25:15.806Z,12.96
2022-12-11T21:27:42.471Z,12.78
2022-12-11T21:30:09.385Z,13.12
2022-12-11T21:32:36.014Z,12.99
2022-12-11T21:35:02.739Z,13.27
2022-12-11T21:37:29.413Z,12.91
2022-12-11T21:39:56.546Z,12.58
2022-12-11T21:42:23.897Z,12.09
2022-12-11T21:45:37.562Z,12.19
2022-12-11T21:47:37.244Z,12.55
2022-12-11T21:50:04.451Z,12.67
2022-12-11T21:52:31.184Z,12.34
2022-12-11T21:54:57.811Z,12.30
2022-12-11T21:57:26.600Z,12.08
2022-12-11T21:59:53.515Z,11.89
2022-12-11T22:02:20.219Z,11.12
2022-12-11T22:04:46.879Z,11.81
2022-12-11T22:07:13.626Z,11.65
2022-12-11T22:09:40.273Z,11.03
2022-12-11T22:12:07.005Z,10.74
2022-12-11T22:14:33.621Z,10.08
2022-12-11T22:17:00.297Z,9.79
2022-12-11T22:19:32.328Z,10.53
2022-12-11T22:21:59.417Z,10.49
2022-12-11T22:24:26.075Z,10.12
2022-12-11T22:26:52.735Z,9.83
2022-12-11T22:29:19.371Z,9.86
2022-12-11T22:31:46.040Z,9.68
2022-12-11T22:34:12.670Z,9.82
2022-12-11T22:36:39.314Z,9.97
2022-12-11T22:39:05.999Z,10.15
2022-12-11T22:41:32.921Z,9.80
2022-12-11T22:43:59.572Z,9.70
2022-12-11T22:46:28.245Z,9.81
2022-12-11T22:48:54.935Z,9.89
2022-12-11T22:51:21.634Z,9.54
2022-12-11T22:53:48.273Z,9.77
2022-12-11T22:56:14.923Z,10.39
2022-12-11T22:58:41.561Z,11.12
2022-12-11T23:01:12.958Z,10.29
2022-12-11T23:03:39.689Z,9.02
2022-12-11T23:06:09.049Z,8.96
2022-12-11T23:08:36.801Z,8.91
2022-12-11T23:11:10.367Z,9.08
2022-12-11T23:13:37.003Z,9.39
2022-12-11T23:16:03.642Z,9.25
2022-12-11T23:18:30.294Z,9.39
2022-12-11T23:20:56.947Z,9.38
2022-12-11T23:23:23.610Z,9.60
2022-12-11T23:25:50.323Z,9.87
2022-12-11T23:28:16.945Z,9.54
2022-12-11T23:30:43.628Z,9.89
2022-12-11T23:33:10.276Z,9.30
2022-12-11T23:35:36.921Z,9.14
2022-12-11T23:38:03.597Z,8.81
2022-12-11T23:40:30.225Z,8.82
2022-12-11T23:42:56.846Z,9.47
2022-12-11T23:45:23.546Z,9.35
2022-12-11T23:47:50.158Z,8.68
2022-12-11T23:50:16.785Z,8.56
2022-12-11T23:52:43.428Z,8.53
2022-12-11T23:55:10.759Z,8.60
2022-12-11T23:57:37.624Z,8.26
